Time;durP1;ratioP1;P1;durP2;ratioP2;P2;SDS_P1;SDS_P2;PMS_P1;PMS_P2;Temp;Humidity;BMP_temperature;BMP_pressure;BME280_temperature;BME280_humidity;BME280_pressure;Samples;Min_cycle;Max_cycle;Signal;HPM_P1;HPM_P2
2023/03/25 00:00:12;;;;;;;46.88;19.45;;;;;;;;;;5038170;28;20454;-76
2023/03/25 00:02:37;;;;;;;45.58;19.75;;;;;;;;;;5056164;28;20111;-77
2023/03/25 00:05:03;;;;;;;44.50;20.23;;;;;;;;;;5056321;28;20140;-77
2023/03/25 00:07:28;;;;;;;42.33;18.35;;;;;;;;;;5054632;28;20367;-76
2023/03/25 00:09:54;;;;;;;43.28;19.27;;;;;;;;;;5054672;28;20029;-77
2023/03/25 00:12:19;;;;;;;45.72;18.40;;;;;;;;;;5055908;28;20021;-77
2023/03/25 00:14:53;;;;;;;45.72;18.92;;;;;;;;;;5054422;28;20021;-77
2023/03/25 00:17:20;;;;;;;41.78;18.63;;;;;;;;;;5058110;28;20029;-77
2023/03/25 00:19:45;;;;;;;48.15;18.95;;;;;;;;;;5057989;28;20024;-77
2023/03/25 00:22:11;;;;;;;45.70;18.85;;;;;;;;;;5076005;28;20090;-76
2023/03/25 00:24:36;;;;;;;43.28;18.27;;;;;;;;;;5057858;28;20028;-77
2023/03/25 00:27:02;;;;;;;39.88;17.67;;;;;;;;;;5057853;28;20056;-76
2023/03/25 00:29:27;;;;;;;42.30;17.52;;;;;;;;;;5041023;28;20070;-77
2023/03/25 00:31:53;;;;;;;47.50;18.13;;;;;;;;;;5041744;28;20086;-77
2023/03/25 00:34:19;;;;;;;42.80;18.55;;;;;;;;;;5057754;28;20351;-77
2023/03/25 00:36:44;;;;;;;43.65;19.05;;;;;;;;;;5058223;28;20398;-77
2023/03/25 00:39:10;;;;;;;43.15;18.73;;;;;;;;;;5075701;28;20442;-77
2023/03/25 00:41:36;;;;;;;47.83;18.08;;;;;;;;;;5041109;28;20093;-77
2023/03/25 00:44:01;;;;;;;45.88;19.08;;;;;;;;;;5040701;28;20064;-77
2023/03/25 00:46:29;;;;;;;46.08;19.20;;;;;;;;;;5040999;28;20025;-77
2023/03/25 00:48:55;;;;;;;48.63;19.30;;;;;;;;;;5057477;28;20032;-77
2023/03/25 00:51:20;;;;;;;45.97;18.88;;;;;;;;;;5057725;28;20081;-77
2023/03/25 00:53:47;;;;;;;42.47;18.30;;;;;;;;;;5075196;28;20031;-77
2023/03/25 00:56:12;;;;;;;47.38;19.92;;;;;;;;;;5040415;28;20034;-78
2023/03/25 00:58:38;;;;;;;43.08;19.50;;;;;;;;;;5055961;28;20020;-77
2023/03/25 01:01:12;;;;;;;46.88;19.92;;;;;;;;;;5092027;28;20162;-77
2023/03/25 01:03:38;;;;;;;47.60;20.50;;;;;;;;;;5061323;28;20028;-77
2023/03/25 01:06:11;;;;;;;49.08;19.38;;;;;;;;;;5077071;28;20035;-77
2023/03/25 01:08:37;;;;;;;43.83;19.23;;;;;;;;;;5094813;28;20038;-77
2023/03/25 01:11:03;;;;;;;47.30;20.17;;;;;;;;;;5095113;28;20055;-77
2023/03/25 01:13:29;;;;;;;45.25;19.27;;;;;;;;;;5093666;28;20117;-77
2023/03/25 01:15:54;;;;;;;47.17;19.48;;;;;;;;;;5094899;28;20040;-77
2023/03/25 01:18:20;;;;;;;44.88;19.55;;;;;;;;;;5093617;28;20059;-78
2023/03/25 01:20:45;;;;;;;41.10;19.15;;;;;;;;;;5094959;28;20081;-77
2023/03/25 01:23:11;;;;;;;46.08;18.88;;;;;;;;;;5093672;28;20097;-77
2023/03/25 01:25:36;;;;;;;44.80;18.02;;;;;;;;;;5093472;28;20024;-77
2023/03/25 01:28:02;;;;;;;40.55;18.10;;;;;;;;;;5093078;28;20407;-77
2023/03/25 01:30:28;;;;;;;44.88;19.33;;;;;;;;;;5076423;28;20056;-77
2023/03/25 01:32:53;;;;;;;47.28;18.70;;;;;;;;;;5094392;28;20036;-77
2023/03/25 01:35:18;;;;;;;41.42;18.58;;;;;;;;;;5060053;28;20028;-78
2023/03/25 01:37:45;;;;;;;44.17;19.73;;;;;;;;;;5076836;28;20036;-78
2023/03/25 01:40:16;;;;;;;47.35;19.80;;;;;;;;;;5076649;28;20035;-77
2023/03/25 01:42:41;;;;;;;;;;;;;;;;;;5076505;28;20142;-78
2023/03/25 01:45:14;;;;;;;49.60;18.85;;;;;;;;;;5093489;28;20291;-78
2023/03/25 01:47:40;;;;;;;45.28;18.23;;;;;;;;;;5076892;28;20034;-77
2023/03/25 01:50:07;;;;;;;49.58;18.90;;;;;;;;;;5093167;28;20457;-78
2023/03/25 01:52:32;;;;;;;51.55;20.02;;;;;;;;;;5076692;28;20126;-78
2023/03/25 01:54:58;;;;;;;47.30;19.15;;;;;;;;;;5092865;28;20085;-77
2023/03/25 01:57:24;;;;;;;48.83;19.60;;;;;;;;;;5093226;28;20397;-78
2023/03/25 01:59:50;;;;;;;46.03;18.77;;;;;;;;;;5069172;28;20080;-78
2023/03/25 02:02:17;;;;;;;45.55;18.50;;;;;;;;;;5059526;28;20035;-78
2023/03/25 02:05:06;;;;;;;51.13;20.35;;;;;;;;;;5059962;28;20571;-78
2023/03/25 02:07:32;;;;;;;52.00;19.60;;;;;;;;;;5076339;28;20378;-78
2023/03/25 02:10:06;;;;;;;49.72;19.60;;;;;;;;;;5075221;28;20028;-78
2023/03/25 02:12:32;;;;;;;42.75;19.15;;;;;;;;;;5059692;28;20027;-79
2023/03/25 02:14:59;;;;;;;47.47;19.50;;;;;;;;;;5075932;28;20031;-77
2023/03/25 02:17:38;;;;;;;48.42;20.85;;;;;;;;;;5059659;28;20331;-78
2023/03/25 02:20:15;;;;;;;44.80;19.52;;;;;;;;;;5076209;28;20024;-78
2023/03/25 02:22:48;;;;;;;45.90;20.08;;;;;;;;;;5075987;28;20032;-78
2023/03/25 02:25:34;;;;;;;49.05;20.38;;;;;;;;;;5093691;28;20020;-78
2023/03/25 02:28:10;;;;;;;53.47;20.60;;;;;;;;;;5076023;28;20063;-78
2023/03/25 02:30:50;;;;;;;52.75;21.45;;;;;;;;;;5093852;28;20031;-78
2023/03/25 02:33:40;;;;;;;53.40;20.92;;;;;;;;;;5093892;28;20469;-78
2023/03/25 02:36:36;;;;;;;49.90;18.48;;;;;;;;;;5094054;28;20028;-79
2023/03/25 02:39:02;;;;;;;46.22;18.85;;;;;;;;;;5075407;28;20028;-78
2023/03/25 02:41:46;;;;;;;50.30;20.00;;;;;;;;;;5075799;28;20024;-78
2023/03/25 02:44:38;;;;;;;47.50;19.13;;;;;;;;;;5075971;28;20082;-78
2023/03/25 02:47:06;;;;;;;43.17;18.88;;;;;;;;;;5060291;28;20055;-77
2023/03/25 02:49:37;;;;;;;47.45;18.35;;;;;;;;;;5059342;28;20039;-78
2023/03/25 02:52:07;;;;;;;45.20;18.90;;;;;;;;;;5059266;28;20020;-78
2023/03/25 02:54:33;;;;;;;46.22;19.20;;;;;;;;;;5058680;28;20439;-79
2023/03/25 02:56:58;;;;;;;46.80;19.88;;;;;;;;;;5058955;28;20040;-78
2023/03/25 02:59:24;;;;;;;47.08;18.77;;;;;;;;;;5055328;28;20481;-78
2023/03/25 03:01:50;;;;;;;47.92;19.80;;;;;;;;;;5022756;28;20032;-78
2023/03/25 03:04:15;;;;;;;46.03;19.58;;;;;;;;;;5055672;28;20028;-78
2023/03/25 03:06:41;;;;;;;46.13;20.15;;;;;;;;;;5073311;28;20560;-78
2023/03/25 03:09:21;;;;;;;51.47;20.05;;;;;;;;;;5022082;28;20033;-78
2023/03/25 03:12:24;;;;;;;56.05;20.92;;;;;;;;;;5055829;28;20028;-78
2023/03/25 03:15:03;;;;;;;53.92;21.45;;;;;;;;;;5073098;28;20461;-78
2023/03/25 03:17:41;;;;;;;58.45;21.27;;;;;;;;;;5023167;28;20117;-78
2023/03/25 03:20:31;;;;;;;46.95;19.58;;;;;;;;;;5074716;28;20040;-78
2023/03/25 03:23:19;;;;;;;52.42;21.55;;;;;;;;;;5076006;28;20063;-78
2023/03/25 03:26:20;;;;;;;56.58;21.35;;;;;;;;;;5027092;28;20036;-77
2023/03/25 03:29:07;;;;;;;;;;;;;;;;;;5044528;28;20036;-78
2023/03/25 03:31:55;;;;;;;52.22;21.90;;;;;;;;;;5042620;28;19965;-78
2023/03/25 03:34:29;;;;;;;55.05;20.00;;;;;;;;;;5042689;28;20072;-78
2023/03/25 03:36:55;;;;;;;56.55;22.40;;;;;;;;;;5026066;28;20032;-78
2023/03/25 03:39:23;;;;;;;61.10;24.08;;;;;;;;;;5041892;28;20128;-78
2023/03/25 03:41:51;;;;;;;60.60;23.85;;;;;;;;;;5042532;28;20504;-78
2023/03/25 03:44:19;;;;;;;57.13;21.80;;;;;;;;;;5042251;28;20373;-78
2023/03/25 03:46:59;;;;;;;60.83;23.50;;;;;;;;;;5042099;28;20028;-78
2023/03/25 03:49:46;;;;;;;69.40;24.48;;;;;;;;;;5042051;28;20040;-78
2023/03/25 03:52:21;;;;;;;61.60;23.60;;;;;;;;;;5058545;28;20035;-79
2023/03/25 03:54:58;;;;;;;61.08;22.90;;;;;;;;;;5058520;28;20028;-78
2023/03/25 03:57:29;;;;;;;66.78;24.95;;;;;;;;;;5042106;28;20075;-78
2023/03/25 04:00:15;;;;;;;68.13;24.58;;;;;;;;;;5069341;28;20488;-79
2023/03/25 04:02:46;;;;;;;66.80;24.67;;;;;;;;;;5063139;28;20365;-78
2023/03/25 04:05:14;;;;;;;64.53;25.77;;;;;;;;;;5062291;28;20039;-78
2023/03/25 04:07:53;;;;;;;65.93;25.60;;;;;;;;;;5061812;28;20024;-77
2023/03/25 04:10:27;;;;;;;64.75;25.42;;;;;;;;;;5080130;28;20032;-78
2023/03/25 04:12:53;;;;;;;74.60;26.10;;;;;;;;;;5078944;28;20031;-78
2023/03/25 04:15:19;;;;;;;66.20;26.40;;;;;;;;;;5061375;28;20040;-78
2023/03/25 04:17:46;;;;;;;69.40;27.67;;;;;;;;;;5096198;28;20093;-78
2023/03/25 04:20:22;;;;;;;65.47;28.10;;;;;;;;;;5062037;28;20031;-78
2023/03/25 04:22:48;;;;;;;74.13;30.42;;;;;;;;;;5062161;28;20078;-79
2023/03/25 04:25:14;;;;;;;81.15;29.55;;;;;;;;;;5061350;28;20031;-78
2023/03/25 04:27:39;;;;;;;80.40;28.95;;;;;;;;;;5044469;28;20127;-78
2023/03/25 04:30:06;;;;;;;76.75;28.48;;;;;;;;;;5096010;28;20427;-78
2023/03/25 04:32:31;;;;;;;76.00;29.05;;;;;;;;;;5060251;28;20032;-79
2023/03/25 04:34:57;;;;;;;78.40;28.70;;;;;;;;;;5095810;28;20023;-78
2023/03/25 04:37:24;;;;;;;81.38;30.80;;;;;;;;;;5077403;28;20089;-78
2023/03/25 04:39:50;;;;;;;78.55;29.25;;;;;;;;;;5044838;28;20335;-79
2023/03/25 04:42:16;;;;;;;84.00;34.22;;;;;;;;;;5077702;28;20028;-78
2023/03/25 04:44:44;;;;;;;95.82;37.75;;;;;;;;;;5095597;28;20030;-78
2023/03/25 04:47:13;;;;;;;92.50;36.28;;;;;;;;;;5078138;28;20024;-78
2023/03/25 04:49:40;;;;;;;92.22;36.03;;;;;;;;;;5077361;28;20028;-78
2023/03/25 04:52:08;;;;;;;103.05;36.30;;;;;;;;;;5077654;28;20024;-78
2023/03/25 04:54:33;;;;;;;91.50;35.25;;;;;;;;;;5095424;28;20074;-78
2023/03/25 04:56:58;;;;;;;108.03;36.40;;;;;;;;;;5095452;28;20456;-78
2023/03/25 04:59:25;;;;;;;101.75;35.08;;;;;;;;;;5095133;28;20027;-78
2023/03/25 05:01:51;;;;;;;96.00;34.60;;;;;;;;;;5077418;28;20407;-78
2023/03/25 05:04:17;;;;;;;94.07;33.35;;;;;;;;;;5060445;28;20028;-78
2023/03/25 05:06:44;;;;;;;92.80;33.42;;;;;;;;;;5077286;28;20059;-78
2023/03/25 05:09:15;;;;;;;89.47;32.83;;;;;;;;;;5077463;28;20039;-78
2023/03/25 05:11:41;;;;;;;95.25;34.72;;;;;;;;;;5095183;28;20024;-78
2023/03/25 05:14:10;;;;;;;97.05;33.90;;;;;;;;;;5095483;28;20031;-78
2023/03/25 05:16:35;;;;;;;97.50;32.83;;;;;;;;;;5061219;28;20101;-78
2023/03/25 05:19:02;;;;;;;90.05;31.15;;;;;;;;;;5076829;28;20671;-78
2023/03/25 05:21:28;;;;;;;82.00;30.02;;;;;;;;;;5095040;28;20475;-78
2023/03/25 05:23:54;;;;;;;83.68;30.05;;;;;;;;;;5094755;28;20036;-78
2023/03/25 05:26:19;;;;;;;76.40;30.38;;;;;;;;;;5076918;28;20118;-78
2023/03/25 05:28:45;;;;;;;87.75;31.10;;;;;;;;;;5076663;28;20082;-78
2023/03/25 05:31:10;;;;;;;83.25;29.90;;;;;;;;;;5077106;28;20036;-78
2023/03/25 05:33:42;;;;;;;86.00;31.67;;;;;;;;;;5094929;28;20438;-78
2023/03/25 05:36:09;;;;;;;96.97;32.95;;;;;;;;;;5077208;28;20056;-79
2023/03/25 05:38:36;;;;;;;88.10;30.77;;;;;;;;;;5076594;28;20032;-78
2023/03/25 05:41:01;;;;;;;93.45;32.90;;;;;;;;;;5094776;28;20109;-78
2023/03/25 05:43:27;;;;;;;92.03;33.20;;;;;;;;;;5059666;28;20446;-79
2023/03/25 05:45:52;;;;;;;128.13;40.22;;;;;;;;;;5076448;28;20481;-78
2023/03/25 05:48:17;;;;;;;122.82;40.17;;;;;;;;;;5094272;28;20374;-78
2023/03/25 05:50:43;;;;;;;109.25;36.05;;;;;;;;;;5094318;28;20437;-78
2023/03/25 05:53:12;;;;;;;95.35;34.63;;;;;;;;;;5076303;28;20070;-78
2023/03/25 05:55:38;;;;;;;180.43;58.10;;;;;;;;;;5042843;28;20377;-78
2023/03/25 05:58:03;;;;;;;125.47;43.33;;;;;;;;;;5076211;28;20028;-78
2023/03/25 06:00:29;;;;;;;126.05;47.25;;;;;;;;;;5076090;28;20449;-79
2023/03/25 06:02:54;;;;;;;98.20;35.00;;;;;;;;;;5055641;28;20443;-78
2023/03/25 06:05:22;;;;;;;82.60;32.03;;;;;;;;;;5076451;28;20127;-78
2023/03/25 06:07:48;;;;;;;90.32;34.47;;;;;;;;;;5077438;28;20036;-79
2023/03/25 06:10:16;;;;;;;85.85;33.40;;;;;;;;;;5042998;28;20032;-79
2023/03/25 06:12:44;;;;;;;104.70;34.67;;;;;;;;;;5076226;28;20119;-79
2023/03/25 06:15:10;;;;;;;95.60;33.22;;;;;;;;;;5093299;28;20127;-79
2023/03/25 06:17:38;;;;;;;87.72;33.35;;;;;;;;;;5058582;28;20376;-79
2023/03/25 06:20:11;;;;;;;95.10;33.10;;;;;;;;;;5043342;28;20031;-79
2023/03/25 06:22:41;;;;;;;81.70;30.60;;;;;;;;;;5059863;28;20028;-78
2023/03/25 06:25:21;;;;;;;82.72;30.88;;;;;;;;;;5060117;28;20499;-79
2023/03/25 06:27:48;;;;;;;78.35;30.67;;;;;;;;;;5058536;28;20028;-80
2023/03/25 06:30:15;;;;;;;77.82;29.75;;;;;;;;;;5075681;28;20032;-79
2023/03/25 06:32:41;;;;;;;72.18;29.08;;;;;;;;;;5075299;28;20385;-79
2023/03/25 06:35:08;;;;;;;80.18;32.40;;;;;;;;;;5061102;28;20024;-79
2023/03/25 06:37:33;;;;;;;81.25;34.25;;;;;;;;;;5082739;28;20028;-79
2023/03/25 06:39:58;;;;;;;78.15;33.13;;;;;;;;;;5046978;28;20035;-77
2023/03/25 06:42:25;;;;;;;78.80;30.67;;;;;;;;;;5058820;28;20122;-78
2023/03/25 06:44:52;;;;;;;75.03;29.65;;;;;;;;;;5042215;28;20024;-78
2023/03/25 06:47:17;;;;;;;75.30;29.23;;;;;;;;;;5081555;28;20025;-80
2023/03/25 06:49:44;;;;;;;74.13;32.70;;;;;;;;;;5040378;28;20033;-79
2023/03/25 06:52:10;;;;;;;76.93;33.30;;;;;;;;;;5055822;28;20029;-77
2023/03/25 06:54:36;;;;;;;65.15;29.80;;;;;;;;;;5073877;28;20031;-77
2023/03/25 06:57:01;;;;;;;59.28;29.73;;;;;;;;;;5026502;28;20032;-78
2023/03/25 06:59:27;;;;;;;52.60;27.60;;;;;;;;;;5059583;28;20058;-78
2023/03/25 07:01:52;;;;;;;48.83;25.63;;;;;;;;;;5059224;28;20028;-78
2023/03/25 07:04:18;;;;;;;47.78;25.80;;;;;;;;;;5077148;28;20103;-78
2023/03/25 07:06:43;;;;;;;51.47;25.80;;;;;;;;;;5042558;28;20082;-78
2023/03/25 07:09:09;;;;;;;53.72;25.20;;;;;;;;;;5059084;28;20051;-77
2023/03/25 07:11:34;;;;;;;50.45;24.52;;;;;;;;;;5042615;28;20029;-77
2023/03/25 07:14:00;;;;;;;57.50;29.63;;;;;;;;;;5042486;28;20025;-77
2023/03/25 07:16:25;;;;;;;42.10;23.30;;;;;;;;;;5065710;28;20150;-78
2023/03/25 07:18:52;;;;;;;58.65;26.75;;;;;;;;;;5097662;28;20441;-78
2023/03/25 07:21:17;;;;;;;50.75;24.80;;;;;;;;;;5079152;28;20102;-78
2023/03/25 07:23:43;;;;;;;50.50;25.25;;;;;;;;;;5078904;28;20051;-79
2023/03/25 07:26:08;;;;;;;53.15;25.90;;;;;;;;;;5097036;28;20039;-78
2023/03/25 07:28:34;;;;;;;52.53;24.55;;;;;;;;;;5097107;28;20415;-78
2023/03/25 07:30:59;;;;;;;50.50;24.38;;;;;;;;;;5078592;28;20355;-77
2023/03/25 07:33:25;;;;;;;58.00;26.25;;;;;;;;;;5078682;28;20495;-78
2023/03/25 07:35:50;;;;;;;59.90;27.00;;;;;;;;;;5097096;28;20462;-77
2023/03/25 07:38:16;;;;;;;61.42;28.23;;;;;;;;;;5093012;28;20051;-77
2023/03/25 07:40:41;;;;;;;92.43;36.05;;;;;;;;;;5096679;28;20085;-78
2023/03/25 07:43:06;;;;;;;61.03;28.67;;;;;;;;;;5096636;28;20051;-76
2023/03/25 07:45:32;;;;;;;60.90;27.88;;;;;;;;;;5096198;28;20381;-77
2023/03/25 07:48:02;;;;;;;65.80;29.67;;;;;;;;;;5096720;28;20438;-78
2023/03/25 07:50:27;;;;;;;;;;;;;;;;;;5097410;28;20078;-77
2023/03/25 07:52:53;;;;;;;80.07;33.25;;;;;;;;;;5096836;28;19970;-77
2023/03/25 07:55:19;;;;;;;66.10;29.70;;;;;;;;;;5078120;28;20028;-77
2023/03/25 07:57:44;;;;;;;62.20;29.38;;;;;;;;;;5078269;28;20031;-77
2023/03/25 08:00:10;;;;;;;64.38;30.23;;;;;;;;;;5078033;28;20073;-78
2023/03/25 08:02:36;;;;;;;67.55;29.52;;;;;;;;;;5061822;28;20116;-77
2023/03/25 08:05:02;;;;;;;71.30;31.10;;;;;;;;;;5078169;28;20170;-77
2023/03/25 08:07:27;;;;;;;66.82;30.30;;;;;;;;;;5060044;28;20386;-76
2023/03/25 08:09:53;;;;;;;73.85;29.95;;;;;;;;;;5077869;28;20028;-78
2023/03/25 08:12:19;;;;;;;86.05;31.27;;;;;;;;;;5061231;28;20027;-78
2023/03/25 08:14:45;;;;;;;67.15;30.30;;;;;;;;;;5077656;28;20031;-76
2023/03/25 08:17:10;;;;;;;71.75;32.55;;;;;;;;;;5044390;28;20031;-77
2023/03/25 08:19:36;;;;;;;74.85;32.90;;;;;;;;;;5059557;28;20394;-77
2023/03/25 08:22:02;;;;;;;75.78;33.42;;;;;;;;;;5094312;28;20024;-77
2023/03/25 08:24:28;;;;;;;79.95;34.47;;;;;;;;;;5094529;28;20102;-77
2023/03/25 08:26:54;;;;;;;78.63;33.70;;;;;;;;;;5093871;28;20020;-77
2023/03/25 08:29:20;;;;;;;81.63;33.58;;;;;;;;;;5043310;28;20036;-78
2023/03/25 08:31:45;;;;;;;79.75;34.58;;;;;;;;;;5093423;28;20457;-78
2023/03/25 08:34:11;;;;;;;91.30;35.63;;;;;;;;;;5075309;28;20035;-77
2023/03/25 08:36:38;;;;;;;84.82;36.30;;;;;;;;;;5058954;28;20425;-77
2023/03/25 08:39:10;;;;;;;95.90;35.80;;;;;;;;;;5074995;28;20023;-77
2023/03/25 08:41:37;;;;;;;86.15;35.58;;;;;;;;;;5055661;28;20071;-77
2023/03/25 08:44:03;;;;;;;70.55;34.58;;;;;;;;;;5038912;28;20028;-78
2023/03/25 08:46:28;;;;;;;76.13;34.28;;;;;;;;;;5073503;28;20021;-77
2023/03/25 08:48:54;;;;;;;78.95;33.65;;;;;;;;;;5055716;28;20158;-77
2023/03/25 08:51:20;;;;;;;74.90;32.83;;;;;;;;;;5055813;28;20036;-77
2023/03/25 08:53:46;;;;;;;78.53;32.65;;;;;;;;;;5055515;28;20450;-77
2023/03/25 08:56:11;;;;;;;76.57;31.20;;;;;;;;;;5079406;28;20036;-75
2023/03/25 08:58:36;;;;;;;69.97;32.50;;;;;;;;;;5063617;28;20044;-75
2023/03/25 09:01:03;;;;;;;64.25;30.38;;;;;;;;;;5061077;28;20102;-76
2023/03/25 09:03:29;;;;;;;67.43;30.95;;;;;;;;;;5055613;28;20024;-76
2023/03/25 09:05:55;;;;;;;76.45;31.85;;;;;;;;;;5072969;28;20024;-78
2023/03/25 09:08:20;;;;;;;83.70;33.15;;;;;;;;;;5073076;28;20094;-76
2023/03/25 09:10:46;;;;;;;93.30;32.47;;;;;;;;;;5061419;28;20073;-76
2023/03/25 09:13:13;;;;;;;77.20;31.60;;;;;;;;;;5064477;28;20455;-75
2023/03/25 09:15:39;;;;;;;73.65;31.08;;;;;;;;;;5043629;28;20048;-77
2023/03/25 09:18:04;;;;;;;74.43;31.55;;;;;;;;;;5036614;28;20115;-79
2023/03/25 09:20:30;;;;;;;65.53;30.88;;;;;;;;;;5052598;28;20528;-79
2023/03/25 09:22:56;;;;;;;71.35;32.35;;;;;;;;;;5036435;28;20036;-78
2023/03/25 09:25:22;;;;;;;85.15;38.33;;;;;;;;;;5071825;28;20033;-77
2023/03/25 09:27:47;;;;;;;86.95;36.28;;;;;;;;;;5071437;28;20028;-77
2023/03/25 09:30:14;;;;;;;81.05;33.95;;;;;;;;;;5054058;28;20416;-77
2023/03/25 09:32:39;;;;;;;86.15;35.67;;;;;;;;;;5053492;28;20494;-78
2023/03/25 09:35:06;;;;;;;86.90;36.50;;;;;;;;;;5053950;28;20136;-75
2023/03/25 09:37:31;;;;;;;83.90;36.65;;;;;;;;;;5054565;28;20039;-77
2023/03/25 09:39:56;;;;;;;85.15;35.25;;;;;;;;;;5078616;28;20122;-77
2023/03/25 09:42:40;;;;;;;85.40;36.03;;;;;;;;;;5073938;28;20032;-77
2023/03/25 09:45:21;;;;;;;92.75;35.63;;;;;;;;;;5088259;28;20338;-77
2023/03/25 09:47:59;;;;;;;88.22;35.67;;;;;;;;;;5092567;28;20465;-77
2023/03/25 09:50:24;;;;;;;89.05;36.28;;;;;;;;;;5059300;28;20043;-77
2023/03/25 09:52:54;;;;;;;84.88;36.13;;;;;;;;;;5059497;28;20167;-76
2023/03/25 09:55:24;;;;;;;88.53;34.83;;;;;;;;;;5092693;28;20032;-78
2023/03/25 09:57:50;;;;;;;110.93;35.30;;;;;;;;;;5074446;28;20437;-78
2023/03/25 10:00:18;;;;;;;81.50;34.25;;;;;;;;;;5058360;28;20070;-77
2023/03/25 10:03:05;;;;;;;108.35;34.13;;;;;;;;;;5058034;28;20081;-78
2023/03/25 10:06:02;;;;;;;78.97;32.80;;;;;;;;;;5058903;28;20034;-78
2023/03/25 10:08:53;;;;;;;83.82;32.75;;;;;;;;;;5092332;28;20031;-77
2023/03/25 10:11:32;;;;;;;79.00;32.80;;;;;;;;;;5044960;28;20043;-77
2023/03/25 10:14:10;;;;;;;78.00;32.77;;;;;;;;;;5059584;28;20123;-77
2023/03/25 10:17:17;;;;;;;65.88;30.60;;;;;;;;;;5094432;28;20301;-78
2023/03/25 10:20:06;;;;;;;75.95;33.55;;;;;;;;;;5055994;28;20097;-79
2023/03/25 10:22:40;;;;;;;79.22;31.67;;;;;;;;;;5059788;28;20111;-78
2023/03/25 10:25:17;;;;;;;83.78;30.75;;;;;;;;;;5059602;28;20035;-78
2023/03/25 10:27:44;;;;;;;74.00;29.33;;;;;;;;;;5078572;28;20036;-79
2023/03/25 10:30:13;;;;;;;68.28;29.23;;;;;;;;;;5096501;28;20405;-77
2023/03/25 10:32:58;;;;;;;68.25;29.08;;;;;;;;;;5063304;28;20024;-78
2023/03/25 10:35:24;;;;;;;78.90;31.23;;;;;;;;;;5091967;28;20471;-77
2023/03/25 10:37:51;;;;;;;68.20;29.42;;;;;;;;;;5095396;28;20053;-77
2023/03/25 10:40:30;;;;;;;65.63;28.20;;;;;;;;;;5096367;28;20020;-78
2023/03/25 10:43:10;;;;;;;65.15;29.30;;;;;;;;;;5096508;28;20032;-77
2023/03/25 10:45:35;;;;;;;63.28;27.50;;;;;;;;;;5087594;28;20020;-79
2023/03/25 10:48:09;;;;;;;63.17;27.30;;;;;;;;;;5062494;28;20089;-79
2023/03/25 10:50:35;;;;;;;59.42;26.42;;;;;;;;;;5047213;28;20082;-77
2023/03/25 10:53:01;;;;;;;59.13;26.15;;;;;;;;;;5097351;28;20023;-77
2023/03/25 10:55:28;;;;;;;56.13;25.02;;;;;;;;;;5079501;28;20020;-78
2023/03/25 10:57:53;;;;;;;59.15;24.75;;;;;;;;;;5063062;28;20131;-78
2023/03/25 11:00:23;;;;;;;59.58;24.55;;;;;;;;;;5079653;28;20490;-78
2023/03/25 11:02:49;;;;;;;59.38;25.60;;;;;;;;;;5063414;28;20032;-78
2023/03/25 11:05:19;;;;;;;56.65;25.85;;;;;;;;;;5097481;28;20036;-78
2023/03/25 11:07:53;;;;;;;65.53;24.45;;;;;;;;;;5062268;28;20032;-78
2023/03/25 11:10:20;;;;;;;57.90;26.30;;;;;;;;;;5062705;28;20039;-78
2023/03/25 11:12:46;;;;;;;59.88;25.10;;;;;;;;;;5079205;28;20457;-78
2023/03/25 11:15:20;;;;;;;53.60;23.92;;;;;;;;;;5078969;28;20362;-78
2023/03/25 11:17:46;;;;;;;57.42;23.42;;;;;;;;;;5079212;28;20028;-79
2023/03/25 11:20:20;;;;;;;54.75;22.48;;;;;;;;;;5062580;28;20028;-78
2023/03/25 11:22:49;;;;;;;44.47;21.67;;;;;;;;;;5045410;28;20084;-79
2023/03/25 11:25:18;;;;;;;48.50;21.30;;;;;;;;;;5046336;28;20093;-79
2023/03/25 11:28:05;;;;;;;52.95;19.58;;;;;;;;;;5079096;28;20024;-78
2023/03/25 11:30:30;;;;;;;42.22;20.05;;;;;;;;;;5062514;28;20024;-77
2023/03/25 11:33:02;;;;;;;41.92;19.58;;;;;;;;;;5045503;28;20173;-77
2023/03/25 11:35:29;;;;;;;43.30;20.30;;;;;;;;;;5079243;28;20039;-79
2023/03/25 11:38:01;;;;;;;44.75;19.00;;;;;;;;;;5062472;28;20450;-76
2023/03/25 11:40:28;;;;;;;45.63;19.17;;;;;;;;;;5062192;28;20032;-76
2023/03/25 11:42:57;;;;;;;36.90;17.90;;;;;;;;;;5096721;28;20369;-80
2023/03/25 11:45:34;;;;;;;35.45;18.20;;;;;;;;;;5062133;28;20365;-78
2023/03/25 11:48:14;;;;;;;43.90;19.25;;;;;;;;;;5059425;28;20068;-79
2023/03/25 11:50:51;;;;;;;40.35;18.65;;;;;;;;;;5045868;28;20442;-79
2023/03/25 11:53:16;;;;;;;48.60;22.23;;;;;;;;;;5063333;28;20024;-77
2023/03/25 11:55:46;;;;;;;53.08;23.40;;;;;;;;;;5096328;28;20028;-77
2023/03/25 11:58:17;;;;;;;53.67;20.73;;;;;;;;;;5061526;28;20028;-77
2023/03/25 12:00:48;;;;;;;41.00;19.25;;;;;;;;;;5061752;28;20114;-78
2023/03/25 12:03:17;;;;;;;48.50;19.58;;;;;;;;;;5062010;28;20024;-78
2023/03/25 12:05:42;;;;;;;45.38;20.77;;;;;;;;;;5078006;28;20032;-77
2023/03/25 12:08:15;;;;;;;48.83;21.58;;;;;;;;;;5078122;28;20525;-78
2023/03/25 12:10:49;;;;;;;64.57;28.33;;;;;;;;;;5078202;28;20028;-79
2023/03/25 12:13:38;;;;;;;58.47;24.05;;;;;;;;;;5096043;28;20086;-77
2023/03/25 12:16:29;;;;;;;55.97;23.58;;;;;;;;;;5073680;28;20059;-78
2023/03/25 12:19:20;;;;;;;54.67;24.60;;;;;;;;;;5074735;28;20056;-78
2023/03/25 12:22:07;;;;;;;53.65;23.90;;;;;;;;;;5074771;28;20111;-78
2023/03/25 12:24:53;;;;;;;53.70;24.13;;;;;;;;;;5042399;28;20367;-78
2023/03/25 12:27:43;;;;;;;52.70;26.27;;;;;;;;;;5074752;28;20025;-79
2023/03/25 12:30:30;;;;;;;53.85;23.75;;;;;;;;;;5074252;28;20044;-79
2023/03/25 12:33:33;;;;;;;59.22;23.85;;;;;;;;;;5059077;28;20036;-78
2023/03/25 12:36:11;;;;;;;60.33;23.25;;;;;;;;;;5075928;28;20068;-79
2023/03/25 12:38:52;;;;;;;50.33;21.95;;;;;;;;;;5075831;28;20115;-78
2023/03/25 12:41:27;;;;;;;47.50;22.65;;;;;;;;;;5075548;28;20036;-79
2023/03/25 12:44:20;;;;;;;48.20;19.75;;;;;;;;;;5074225;28;20032;-79
2023/03/25 12:47:15;;;;;;;40.45;18.63;;;;;;;;;;5075463;28;20111;-78
2023/03/25 12:50:16;;;;;;;41.03;16.70;;;;;;;;;;5070340;28;20033;-78
2023/03/25 12:53:06;;;;;;;79.72;17.90;;;;;;;;;;5032269;28;20043;-78
2023/03/25 12:55:55;;;;;;;40.03;16.55;;;;;;;;;;5073588;28;20465;-78
2023/03/25 12:58:32;;;;;;;29.92;15.82;;;;;;;;;;5075360;28;20398;-78
2023/03/25 13:01:17;;;;;;;43.13;17.10;;;;;;;;;;5073301;28;20141;-77
2023/03/25 13:03:51;;;;;;;44.15;18.02;;;;;;;;;;5074691;28;20032;-77
2023/03/25 13:06:29;;;;;;;49.97;17.05;;;;;;;;;;5056688;28;20041;-78
2023/03/25 13:09:26;;;;;;;36.58;16.17;;;;;;;;;;5073433;28;20370;-77
2023/03/25 13:12:01;;;;;;;30.42;13.57;;;;;;;;;;5073437;28;20071;-77
2023/03/25 13:14:48;;;;;;;23.95;11.07;;;;;;;;;;5073637;28;20063;-77
2023/03/25 13:17:26;;;;;;;24.15;10.50;;;;;;;;;;5052149;28;20110;-76
2023/03/25 13:19:52;;;;;;;19.15;10.48;;;;;;;;;;5043925;28;20044;-79
2023/03/25 13:22:23;;;;;;;26.00;10.73;;;;;;;;;;5060830;28;20035;-76
2023/03/25 13:25:03;;;;;;;21.48;10.00;;;;;;;;;;5060500;28;20035;-77
2023/03/25 13:27:33;;;;;;;23.13;10.32;;;;;;;;;;5060782;28;20024;-77
2023/03/25 13:29:58;;;;;;;22.95;11.32;;;;;;;;;;5060067;28;20034;-77
2023/03/25 13:32:24;;;;;;;22.88;10.48;;;;;;;;;;5059531;28;20031;-78
2023/03/25 13:34:53;;;;;;;27.10;10.95;;;;;;;;;;5094767;28;20024;-77
2023/03/25 13:37:24;;;;;;;32.45;11.90;;;;;;;;;;5076792;28;20036;-76
2023/03/25 13:40:11;;;;;;;23.55;12.13;;;;;;;;;;5077294;28;20135;-78
2023/03/25 13:42:49;;;;;;;24.15;11.23;;;;;;;;;;5079515;28;20484;-78
2023/03/25 13:45:19;;;;;;;34.40;11.57;;;;;;;;;;5094466;28;20028;-78
2023/03/25 13:48:05;;;;;;;32.40;12.90;;;;;;;;;;5076383;28;20028;-78
2023/03/25 13:50:30;;;;;;;31.77;14.32;;;;;;;;;;5078201;28;20032;-79
2023/03/25 13:53:15;;;;;;;28.70;12.60;;;;;;;;;;5076082;28;20437;-79
2023/03/25 13:55:44;;;;;;;23.83;12.02;;;;;;;;;;5094150;28;20089;-78
2023/03/25 13:58:18;;;;;;;24.73;11.93;;;;;;;;;;5094116;28;20470;-78
2023/03/25 14:00:59;;;;;;;23.08;11.60;;;;;;;;;;5093502;28;20028;-78
2023/03/25 14:03:47;;;;;;;21.65;10.52;;;;;;;;;;5093903;28;20127;-77
2023/03/25 14:06:35;;;;;;;26.40;10.10;;;;;;;;;;5093414;28;20115;-78
2023/03/25 14:09:18;;;;;;;25.98;9.93;;;;;;;;;;5075697;28;20359;-77
2023/03/25 14:11:56;;;;;;;21.13;9.98;;;;;;;;;;5075952;28;20046;-78
2023/03/25 14:14:21;;;;;;;25.55;10.95;;;;;;;;;;5075863;28;20536;-78
2023/03/25 14:16:57;;;;;;;28.83;11.63;;;;;;;;;;5058898;28;20193;-77
2023/03/25 14:19:36;;;;;;;22.17;11.18;;;;;;;;;;5060705;28;20024;-78
2023/03/25 14:22:32;;;;;;;32.40;13.32;;;;;;;;;;5060504;28;20028;-78
2023/03/25 14:24:58;;;;;;;29.83;12.80;;;;;;;;;;5059578;28;20035;-78
2023/03/25 14:27:28;;;;;;;30.60;10.85;;;;;;;;;;5076041;28;20071;-78
2023/03/25 14:30:04;;;;;;;28.92;10.10;;;;;;;;;;5075486;28;20028;-78
2023/03/25 14:32:34;;;;;;;23.00;10.23;;;;;;;;;;5093922;28;20024;-78
2023/03/25 14:35:30;;;;;;;22.67;10.40;;;;;;;;;;5075828;28;20070;-79
2023/03/25 14:38:11;;;;;;;24.88;11.98;;;;;;;;;;5076112;28;20089;-78
2023/03/25 14:40:48;;;;;;;22.67;10.55;;;;;;;;;;5094222;28;20027;-79